createdAt,value
2018-05-26T00:01:01.540Z,92.50
2018-05-26T00:03:29.073Z,92.30
2018-05-26T00:05:56.660Z,92.40
2018-05-26T00:08:24.211Z,91.30
2018-05-26T00:10:51.785Z,92.20
2018-05-26T00:13:19.342Z,92.70
2018-05-26T00:15:46.929Z,92.20
2018-05-26T00:18:15.252Z,92.40
2018-05-26T00:20:42.834Z,92.80
2018-05-26T00:23:10.462Z,92.50
2018-05-26T00:25:38.076Z,92.40
2018-05-26T00:28:05.635Z,92.20
2018-05-26T00:30:33.219Z,91.70
2018-05-26T00:33:00.853Z,92.60
2018-05-26T00:35:28.434Z,93.10
2018-05-26T00:37:56.740Z,93.40
2018-05-26T00:40:24.287Z,93.30
2018-05-26T00:42:51.860Z,93.20
2018-05-26T00:45:19.423Z,93.10
2018-05-26T00:47:47.099Z,93.20
2018-05-26T00:50:14.645Z,92.70
2018-05-26T00:52:42.205Z,93.30
2018-05-26T00:55:09.790Z,92.90
2018-05-26T00:57:37.342Z,92.80
2018-05-26T01:00:04.947Z,93.70
2018-05-26T01:02:33.307Z,92.90
2018-05-26T01:05:00.866Z,92.90
2018-05-26T01:07:28.441Z,92.90
2018-05-26T01:09:56.788Z,92.90
2018-05-26T01:12:24.377Z,92.80
2018-05-26T01:14:51.949Z,92.70
2018-05-26T01:17:20.286Z,93.60
2018-05-26T01:19:47.883Z,93.50
2018-05-26T01:22:16.210Z,92.60
2018-05-26T01:24:43.765Z,92.50
2018-05-26T01:27:11.346Z,93.50
2018-05-26T01:29:38.904Z,94.00
2018-05-26T01:32:06.449Z,94.10
2018-05-26T01:34:34.041Z,93.50
2018-05-26T01:37:01.643Z,93.90
2018-05-26T01:39:29.364Z,93.40
2018-05-26T01:41:56.946Z,94.20
2018-05-26T01:44:25.296Z,93.00
2018-05-26T01:46:52.883Z,93.00
2018-05-26T01:49:20.452Z,94.00
2018-05-26T01:51:48.805Z,93.60
2018-05-26T01:54:16.363Z,93.60
2018-05-26T01:56:44.112Z,94.20
2018-05-26T01:59:12.463Z,94.20
2018-05-26T02:01:40.016Z,94.10
2018-05-26T02:04:07.571Z,93.10
2018-05-26T02:06:35.137Z,94.10
2018-05-26T02:09:02.694Z,94.90
2018-05-26T02:11:30.281Z,94.70
2018-05-26T02:13:58.628Z,95.40
2018-05-26T02:16:26.958Z,94.90
2018-05-26T02:18:54.551Z,94.90
2018-05-26T02:21:22.899Z,94.20
2018-05-26T02:23:50.446Z,94.30
2018-05-26T02:26:18.060Z,95.40
2018-05-26T02:28:46.373Z,95.20
2018-05-26T02:31:13.932Z,95.10
2018-05-26T02:33:54.406Z,95.70
2018-05-26T02:36:22.112Z,95.70
2018-05-26T02:38:50.468Z,95.90
2018-05-26T02:41:18.031Z,95.80
2018-05-26T02:43:45.616Z,95.40
2018-05-26T02:46:13.996Z,96.20
2018-05-26T02:48:42.319Z,96.20
2018-05-26T02:51:09.896Z,96.20
2018-05-26T02:53:37.479Z,95.60
2018-05-26T02:56:05.063Z,95.10
2018-05-26T02:58:33.459Z,94.80
2018-05-26T03:01:01.023Z,94.80
2018-05-26T03:03:28.578Z,95.10
2018-05-26T03:06:01.848Z,94.80
2018-05-26T03:08:34.943Z,95.60
2018-05-26T03:11:08.789Z,95.30
2018-05-26T03:13:41.870Z,95.30
2018-05-26T03:19:22.572Z,95.70
2018-05-26T03:21:50.187Z,95.80
2018-05-26T03:24:17.759Z,95.80
2018-05-26T03:26:45.649Z,95.10
2018-05-26T03:29:14.011Z,94.30
2018-05-26T03:31:43.167Z,94.60
2018-05-26T03:34:10.732Z,94.50
2018-05-26T03:36:38.344Z,95.10
2018-05-26T03:39:07.316Z,95.20
2018-05-26T03:41:35.137Z,95.20
2018-05-26T03:44:02.919Z,95.30
2018-05-26T03:46:30.510Z,95.00
2018-05-26T03:48:58.893Z,94.90
2018-05-26T03:51:27.233Z,94.90
2018-05-26T03:53:54.840Z,94.90
2018-05-26T03:56:35.157Z,95.70
2018-05-26T03:59:14.733Z,95.70
2018-05-26T04:01:43.095Z,95.70
2018-05-26T04:04:10.710Z,95.70
2018-05-26T04:06:38.441Z,95.20
2018-05-26T04:09:06.786Z,94.70
2018-05-26T04:11:34.381Z,94.70
2018-05-26T04:14:02.797Z,94.60
2018-05-26T04:16:30.384Z,94.60
2018-05-26T04:18:57.967Z,94.50
2018-05-26T04:21:26.361Z,94.50
2018-05-26T04:23:54.698Z,94.50
2018-05-26T04:26:22.856Z,94.50
2018-05-26T04:28:50.451Z,94.60
2018-05-26T04:31:18.051Z,94.60
2018-05-26T04:33:45.610Z,94.90
2018-05-26T04:36:13.970Z,94.90
2018-05-26T04:38:41.575Z,95.00
2018-05-26T04:41:09.182Z,95.00
2018-05-26T04:43:37.663Z,94.80
2018-05-26T04:46:06.050Z,94.80
2018-05-26T04:48:33.629Z,94.70
2018-05-26T04:51:01.401Z,94.60
2018-05-26T04:53:28.998Z,94.70
2018-05-26T04:55:56.607Z,94.40
2018-05-26T04:58:24.236Z,94.00
2018-05-26T05:00:52.563Z,93.60
2018-05-26T05:03:20.994Z,93.60
2018-05-26T05:05:49.417Z,93.90
2018-05-26T05:08:17.035Z,93.90
2018-05-26T05:10:45.831Z,93.30
2018-05-26T05:13:14.181Z,93.10
2018-05-26T05:15:42.670Z,93.20
2018-05-26T05:18:10.730Z,93.00
2018-05-26T05:20:39.836Z,92.40
2018-05-26T05:23:07.455Z,92.40
2018-05-26T05:25:35.044Z,92.20
2018-05-26T05:28:02.670Z,91.80
2018-05-26T05:30:30.291Z,91.80
2018-05-26T05:32:58.913Z,91.80
2018-05-26T05:35:26.589Z,91.80
2018-05-26T05:37:54.163Z,91.10
2018-05-26T05:40:21.783Z,90.70
2018-05-26T05:42:49.386Z,90.90
2018-05-26T05:45:17.753Z,90.40
2018-05-26T05:47:45.396Z,90.00
2018-05-26T05:50:13.683Z,90.00
2018-05-26T05:52:41.261Z,90.10
2018-05-26T05:55:08.851Z,90.10
2018-05-26T05:57:37.329Z,88.90
2018-05-26T06:00:05.683Z,88.60
2018-05-26T06:02:33.243Z,88.60
2018-05-26T06:05:00.870Z,89.40
2018-05-26T06:07:28.452Z,89.90
2018-05-26T06:09:56.189Z,88.70
2018-05-26T06:12:23.791Z,88.10
2018-05-26T06:14:51.411Z,88.90
2018-05-26T06:17:19.130Z,88.50
2018-05-26T06:19:46.709Z,87.20
2018-05-26T06:22:14.313Z,88.10
2018-05-26T06:24:41.967Z,87.20
2018-05-26T06:27:09.539Z,88.00
2018-05-26T06:29:37.171Z,87.30
2018-05-26T06:32:04.844Z,87.50
2018-05-26T06:34:32.437Z,86.90
2018-05-26T06:37:00.037Z,85.60
2018-05-26T06:39:27.971Z,86.20
2018-05-26T06:41:56.375Z,85.80
2018-05-26T06:44:24.704Z,85.60
2018-05-26T06:46:52.302Z,86.20
2018-05-26T06:49:20.671Z,85.50
2018-05-26T06:51:49.019Z,86.20
2018-05-26T06:54:17.229Z,85.30
2018-05-26T06:56:45.564Z,84.10
2018-05-26T06:59:13.243Z,84.10
2018-05-26T07:01:41.087Z,83.70
2018-05-26T07:04:08.699Z,84.60
2018-05-26T07:06:37.239Z,83.80
2018-05-26T07:09:04.844Z,83.70
2018-05-26T07:11:33.169Z,84.10
2018-05-26T07:14:00.974Z,84.00
2018-05-26T07:16:29.774Z,83.00
2018-05-26T07:18:58.143Z,82.10
2018-05-26T07:21:26.477Z,82.30
2018-05-26T07:23:54.162Z,82.20
2018-05-26T07:26:21.756Z,80.10
2018-05-26T07:28:49.333Z,79.40
2018-05-26T07:31:17.210Z,81.60
2018-05-26T07:33:44.873Z,81.90
2018-05-26T07:36:12.432Z,78.80
2018-05-26T07:38:40.037Z,79.40
2018-05-26T07:41:07.682Z,77.80
2018-05-26T07:43:35.243Z,78.10
2018-05-26T07:46:02.826Z,75.50
2018-05-26T07:48:30.388Z,75.20
2018-05-26T07:50:58.897Z,76.60
2018-05-26T07:53:26.480Z,76.50
2018-05-26T07:55:54.264Z,74.10
2018-05-26T07:58:21.951Z,74.50
2018-05-26T08:00:50.219Z,73.30
2018-05-26T08:03:17.807Z,73.20
2018-05-26T08:05:45.387Z,70.40
2018-05-26T08:08:12.983Z,70.30
2018-05-26T08:10:40.591Z,67.40
2018-05-26T08:13:08.164Z,68.10
2018-05-26T08:15:36.875Z,67.40
2018-05-26T08:18:04.489Z,66.00
2018-05-26T08:20:32.826Z,61.70
2018-05-26T08:23:00.388Z,61.60
2018-05-26T08:25:28.022Z,62.10
2018-05-26T08:27:55.595Z,60.40
2018-05-26T08:30:23.195Z,59.00
2018-05-26T08:32:51.627Z,59.50
2018-05-26T08:35:19.380Z,59.50
2018-05-26T08:37:47.001Z,59.60
2018-05-26T08:40:15.341Z,60.10
2018-05-26T08:42:43.004Z,60.00
2018-05-26T08:45:11.203Z,58.80
2018-05-26T08:47:38.813Z,58.20
2018-05-26T08:50:06.675Z,58.30
2018-05-26T08:52:34.278Z,55.90
2018-05-26T08:55:03.253Z,54.60
2018-05-26T08:57:30.843Z,54.50
2018-05-26T08:59:58.398Z,54.60
2018-05-26T09:02:26.013Z,56.50
2018-05-26T09:04:53.572Z,57.10
2018-05-26T09:07:21.197Z,56.50
2018-05-26T09:09:49.925Z,56.40
2018-05-26T09:12:17.481Z,56.30
2018-05-26T09:14:45.150Z,55.90
2018-05-26T09:17:12.820Z,54.20
2018-05-26T09:19:40.408Z,52.70
2018-05-26T09:22:07.984Z,52.20
2018-05-26T09:24:36.545Z,52.70
2018-05-26T09:27:04.196Z,52.70
2018-05-26T09:29:33.273Z,51.60
2018-05-26T09:32:00.864Z,51.60
2018-05-26T09:34:28.433Z,52.60
2018-05-26T09:36:57.876Z,51.30
2018-05-26T09:39:25.488Z,51.30
2018-05-26T09:41:53.043Z,51.60
2018-05-26T09:44:20.616Z,50.80
2018-05-26T09:46:49.256Z,51.60
2018-05-26T09:49:16.825Z,51.60
2018-05-26T09:51:44.475Z,51.10
2018-05-26T09:54:12.105Z,49.60
2018-05-26T09:56:39.785Z,49.80
2018-05-26T09:59:07.335Z,49.20
2018-05-26T10:01:34.919Z,48.90
2018-05-26T10:04:03.831Z,47.50
2018-05-26T10:06:31.588Z,49.50
2018-05-26T10:08:59.133Z,49.10
2018-05-26T10:11:26.712Z,47.60
2018-05-26T10:13:55.183Z,48.80
2018-05-26T10:16:23.659Z,49.10
2018-05-26T10:18:51.249Z,49.10
2018-05-26T10:21:19.558Z,48.90
2018-05-26T10:23:47.347Z,49.10
2018-05-26T10:26:14.910Z,49.20
2018-05-26T10:28:42.493Z,48.40
2018-05-26T10:31:10.215Z,47.00
2018-05-26T10:33:37.774Z,47.60
2018-05-26T10:36:05.338Z,46.20
2018-05-26T10:38:32.943Z,45.60
2018-05-26T10:41:00.540Z,45.20
2018-05-26T10:43:28.106Z,45.00
2018-05-26T10:46:18.218Z,43.10
2018-05-26T10:48:45.808Z,43.90
2018-05-26T10:51:14.172Z,42.90
2018-05-26T10:53:41.748Z,42.80
2018-05-26T10:56:10.128Z,42.00
2018-05-26T10:58:38.568Z,43.30
2018-05-26T11:01:06.180Z,42.60
2018-05-26T11:03:34.559Z,42.70
2018-05-26T11:06:02.939Z,42.50
2018-05-26T11:08:31.479Z,41.50
2018-05-26T11:10:59.047Z,41.50
2018-05-26T11:13:26.640Z,42.90
2018-05-26T11:15:54.225Z,40.70
2018-05-26T11:18:21.792Z,39.50
2018-05-26T11:20:49.378Z,39.10
2018-05-26T11:23:16.986Z,41.00
2018-05-26T11:25:44.569Z,41.60
2018-05-26T11:28:12.129Z,40.90
2018-05-26T11:30:39.757Z,41.00
2018-05-26T11:33:08.301Z,40.10
2018-05-26T11:35:35.868Z,40.00
2018-05-26T11:38:04.057Z,40.30
2018-05-26T11:40:31.637Z,41.20
2018-05-26T11:42:59.978Z,40.40
2018-05-26T11:45:28.524Z,40.30
2018-05-26T11:47:56.093Z,40.80
2018-05-26T11:50:23.670Z,38.60
2018-05-26T11:52:51.257Z,41.20
2018-05-26T11:55:20.781Z,39.70
2018-05-26T11:57:48.414Z,39.70
2018-05-26T12:00:15.985Z,40.30
2018-05-26T12:02:44.315Z,38.00
2018-05-26T12:05:11.917Z,37.90
2018-05-26T12:07:40.247Z,36.60
2018-05-26T12:10:07.827Z,36.50
2018-05-26T12:12:35.670Z,35.30
2018-05-26T12:15:03.268Z,35.70
2018-05-26T12:17:30.929Z,36.10
2018-05-26T12:19:58.497Z,37.60
2018-05-26T12:22:26.117Z,36.00
2018-05-26T12:24:53.713Z,34.70
2018-05-26T12:27:22.051Z,35.90
2018-05-26T12:29:49.607Z,35.90
2018-05-26T12:32:17.250Z,35.90
2018-05-26T12:34:45.535Z,35.30
2018-05-26T12:37:13.110Z,37.90
2018-05-26T12:39:40.725Z,35.50
2018-05-26T12:42:09.133Z,37.10
2018-05-26T12:44:36.688Z,37.00
2018-05-26T12:47:04.273Z,37.50
2018-05-26T12:49:31.842Z,36.20
2018-05-26T12:51:59.488Z,37.10
2018-05-26T12:54:27.048Z,38.40
2018-05-26T12:56:54.708Z,37.00
2018-05-26T12:59:22.458Z,37.10
2018-05-26T13:01:50.105Z,34.20
2018-05-26T13:04:17.685Z,37.60
2018-05-26T13:06:45.448Z,36.00
2018-05-26T13:09:13.055Z,36.40
2018-05-26T13:11:41.582Z,38.90
2018-05-26T13:14:09.189Z,38.90
2018-05-26T13:16:37.577Z,39.70
2018-05-26T13:19:05.917Z,40.60
2018-05-26T13:21:33.587Z,40.50
2018-05-26T13:24:01.185Z,40.10
2018-05-26T13:26:28.814Z,40.10
2018-05-26T13:28:56.381Z,40.90
2018-05-26T13:31:23.989Z,40.00
2018-05-26T13:33:51.699Z,41.10
2018-05-26T13:36:19.300Z,41.00
2018-05-26T13:38:46.883Z,40.20
2018-05-26T13:41:14.469Z,41.60
2018-05-26T13:43:42.028Z,41.40
2018-05-26T13:46:09.603Z,40.90
2018-05-26T13:48:37.187Z,42.90
2018-05-26T13:51:05.802Z,40.50
2018-05-26T13:53:33.529Z,40.40
2018-05-26T13:56:01.755Z,42.00
2018-05-26T13:58:29.363Z,42.10
2018-05-26T14:00:57.699Z,40.90
2018-05-26T14:03:25.271Z,40.70
2018-05-26T14:05:52.895Z,40.60
2018-05-26T14:08:20.465Z,41.60
2018-05-26T14:10:48.058Z,41.90
2018-05-26T14:13:15.657Z,40.80
2018-05-26T14:15:43.218Z,42.40
2018-05-26T14:18:10.919Z,43.80
2018-05-26T14:20:38.485Z,44.20
2018-05-26T14:23:06.095Z,44.50
2018-05-26T14:25:33.691Z,44.90
2018-05-26T14:28:01.259Z,45.90
2018-05-26T14:30:28.853Z,45.70
2018-05-26T14:32:57.276Z,44.90
2018-05-26T14:35:24.858Z,44.80
2018-05-26T14:37:52.456Z,45.30
2018-05-26T14:40:20.867Z,46.50
2018-05-26T14:42:48.439Z,46.50
2018-05-26T14:45:16.044Z,47.70
2018-05-26T14:47:44.378Z,47.30
2018-05-26T14:50:11.938Z,47.20
2018-05-26T14:52:39.545Z,47.80
2018-05-26T14:55:07.883Z,46.50
2018-05-26T14:57:35.503Z,46.50
2018-05-26T15:00:03.244Z,47.60
2018-05-26T15:02:31.669Z,47.80
2018-05-26T15:04:59.343Z,47.70
2018-05-26T15:07:27.039Z,47.10
2018-05-26T15:09:55.371Z,46.30
2018-05-26T15:12:22.942Z,46.30
2018-05-26T15:14:50.805Z,46.00
2018-05-26T15:17:18.466Z,45.50
2018-05-26T15:19:46.030Z,46.10
2018-05-26T15:22:13.694Z,46.80
2018-05-26T15:24:41.540Z,47.00
2018-05-26T15:27:09.201Z,47.80
2018-05-26T15:29:36.784Z,45.70
2018-05-26T15:32:04.364Z,44.70
2018-05-26T15:34:32.704Z,46.00
2018-05-26T15:37:00.320Z,46.00
2018-05-26T15:39:28.675Z,44.80
2018-05-26T15:41:56.375Z,44.80
2018-05-26T15:44:24.158Z,45.40
2018-05-26T15:46:51.744Z,44.30
2018-05-26T15:49:19.347Z,44.60
2018-05-26T15:51:47.770Z,45.80
2018-05-26T15:54:15.395Z,45.80
2018-05-26T15:56:42.980Z,46.30
2018-05-26T15:59:10.949Z,47.40
2018-05-26T16:01:38.539Z,46.60
2018-05-26T16:04:06.194Z,46.90
2018-05-26T16:06:33.801Z,48.00
2018-05-26T16:09:02.160Z,50.30
2018-05-26T16:11:30.545Z,51.70
2018-05-26T16:13:58.879Z,52.10
2018-05-26T16:16:26.537Z,52.10
2018-05-26T16:18:54.188Z,52.70
2018-05-26T16:21:21.742Z,53.40
2018-05-26T16:23:49.944Z,53.90
2018-05-26T16:26:17.537Z,54.60
2018-05-26T16:28:45.872Z,55.50
2018-05-26T16:31:13.448Z,55.40
2018-05-26T16:33:41.055Z,55.30
2018-05-26T16:36:08.732Z,55.70
2018-05-26T16:38:36.848Z,55.80
2018-05-26T16:41:04.517Z,55.80
2018-05-26T16:43:32.127Z,56.10
2018-05-26T16:45:59.731Z,56.30
2018-05-26T16:48:27.310Z,56.40
2018-05-26T16:50:55.652Z,56.60
2018-05-26T16:53:23.290Z,56.60
2018-05-26T16:55:51.013Z,56.80
2018-05-26T16:58:19.349Z,56.50
2018-05-26T17:00:46.996Z,56.40
2018-05-26T17:03:14.622Z,56.90
2018-05-26T17:05:42.262Z,56.90
2018-05-26T17:08:09.896Z,57.30
2018-05-26T17:10:37.457Z,57.40
2018-05-26T17:13:05.061Z,58.10
2018-05-26T17:15:33.915Z,58.50
2018-05-26T17:18:01.493Z,58.40
2018-05-26T17:20:29.895Z,59.40
2018-05-26T17:22:57.500Z,58.70
2018-05-26T17:25:25.086Z,59.10
2018-05-26T17:27:52.708Z,58.90
2018-05-26T17:30:20.317Z,59.60
2018-05-26T17:32:48.686Z,60.10
2018-05-26T17:35:17.026Z,60.30
2018-05-26T17:37:44.584Z,60.20
2018-05-26T17:40:12.184Z,60.20
2018-05-26T17:42:40.568Z,61.00
2018-05-26T17:45:08.992Z,61.40
2018-05-26T17:47:36.569Z,61.40
2018-05-26T17:50:04.145Z,61.60
2018-05-26T17:52:31.815Z,62.00
2018-05-26T17:54:59.391Z,62.10
2018-05-26T17:57:27.730Z,63.50
2018-05-26T17:59:55.466Z,62.60
2018-05-26T18:02:23.038Z,62.80
2018-05-26T18:04:50.621Z,62.90
2018-05-26T18:07:18.237Z,63.00
2018-05-26T18:09:45.825Z,63.70
2018-05-26T18:12:13.391Z,63.60
2018-05-26T18:14:41.131Z,62.90
2018-05-26T18:17:08.712Z,62.30
2018-05-26T18:19:36.334Z,62.00
2018-05-26T18:22:03.916Z,62.20
2018-05-26T18:24:31.485Z,62.40
2018-05-26T18:26:59.089Z,62.90
2018-05-26T18:29:27.434Z,64.40
2018-05-26T18:31:56.151Z,64.90
2018-05-26T18:34:24.781Z,65.40
2018-05-26T18:36:52.377Z,65.30
2018-05-26T18:39:19.997Z,65.70
2018-05-26T18:41:47.606Z,66.10
2018-05-26T18:44:15.165Z,66.30
2018-05-26T18:46:42.735Z,66.20
2018-05-26T18:49:11.149Z,66.80
2018-05-26T18:51:38.713Z,66.70
2018-05-26T18:54:06.295Z,68.00
2018-05-26T18:56:34.224Z,68.50
2018-05-26T18:59:01.789Z,69.40
2018-05-26T19:01:29.663Z,69.70
2018-05-26T19:03:57.261Z,70.20
2018-05-26T19:06:24.884Z,71.00
2018-05-26T19:08:52.513Z,71.30
2018-05-26T19:11:20.862Z,72.80
2018-05-26T19:13:48.471Z,71.80
2018-05-26T19:16:16.160Z,72.20
2018-05-26T19:18:43.912Z,72.60
2018-05-26T19:21:11.568Z,73.00
2018-05-26T19:23:39.174Z,73.90
2018-05-26T19:26:06.795Z,74.50
2018-05-26T19:28:34.555Z,75.10
2018-05-26T19:31:02.162Z,75.30
2018-05-26T19:33:29.835Z,75.50
2018-05-26T19:35:58.296Z,76.50
2018-05-26T19:38:25.881Z,76.40
2018-05-26T19:40:55.058Z,77.30
2018-05-26T19:43:24.153Z,77.30
2018-05-26T19:45:51.760Z,77.30
2018-05-26T19:48:19.385Z,77.30
2018-05-26T19:50:47.786Z,77.80
2018-05-26T19:53:15.462Z,77.80
2018-05-26T19:55:43.340Z,78.00
2018-05-26T19:58:10.963Z,78.20
2018-05-26T20:00:39.358Z,77.60
2018-05-26T20:03:07.002Z,77.40
2018-05-26T20:05:35.376Z,77.80
2018-05-26T20:08:03.902Z,77.90
2018-05-26T20:10:33.583Z,78.70
2018-05-26T20:13:01.186Z,78.70
2018-05-26T20:15:28.956Z,79.30
2018-05-26T20:17:56.750Z,80.10
2018-05-26T20:20:24.357Z,80.60
2018-05-26T20:22:51.986Z,80.50
2018-05-26T20:25:20.181Z,80.50
2018-05-26T20:27:47.767Z,80.60
2018-05-26T20:30:15.426Z,80.50
2018-05-26T20:32:43.088Z,80.70
2018-05-26T20:35:10.712Z,81.30
2018-05-26T20:37:38.374Z,82.10
2018-05-26T20:40:06.014Z,82.70
2018-05-26T20:42:34.382Z,82.00
2018-05-26T20:45:01.962Z,82.00
2018-05-26T20:47:29.656Z,82.50
2018-05-26T20:49:57.554Z,82.70
2018-05-26T20:52:25.175Z,83.10
2018-05-26T20:54:52.816Z,83.30
2018-05-26T20:57:21.368Z,83.90
2018-05-26T20:59:49.459Z,83.80
2018-05-26T21:02:17.895Z,84.90
2018-05-26T21:04:45.473Z,84.80
2018-05-26T21:07:13.072Z,85.00
2018-05-26T21:09:40.687Z,85.20
2018-05-26T21:12:08.273Z,85.20
2018-05-26T21:14:36.620Z,85.20
2018-05-26T21:17:04.361Z,85.10
2018-05-26T21:19:31.985Z,84.50
2018-05-26T21:22:00.347Z,84.00
2018-05-26T21:24:28.689Z,85.00
2018-05-26T21:26:56.638Z,85.10
2018-05-26T21:29:24.304Z,85.10
2018-05-26T21:31:51.924Z,85.80
2018-05-26T21:34:20.304Z,86.70
2018-05-26T21:36:48.718Z,86.60
2018-05-26T21:39:16.534Z,86.50
2018-05-26T21:41:44.922Z,86.50
2018-05-26T21:44:13.267Z,86.70
2018-05-26T21:46:41.394Z,86.70
2018-05-26T21:49:08.980Z,88.90
2018-05-26T21:51:36.695Z,88.60
2018-05-26T21:54:05.031Z,90.30
2018-05-26T21:56:32.678Z,90.30
2018-05-26T21:59:00.257Z,89.20
2018-05-26T22:01:27.886Z,90.10
2018-05-26T22:03:55.619Z,90.00
2018-05-26T22:06:23.246Z,90.40
2018-05-26T22:08:50.962Z,90.50
2018-05-26T22:11:18.673Z,90.10
2018-05-26T22:13:46.316Z,90.60
2018-05-26T22:16:13.886Z,90.80
2018-05-26T22:18:41.499Z,90.40
2018-05-26T22:21:09.066Z,91.40
2018-05-26T22:23:36.847Z,90.80
2018-05-26T22:26:04.476Z,91.40
2018-05-26T22:28:32.904Z,91.50
2018-05-26T22:31:00.504Z,91.50
2018-05-26T22:33:29.132Z,92.60
2018-05-26T22:35:56.816Z,92.50
2018-05-26T22:38:24.945Z,92.50
2018-05-26T22:40:53.134Z,92.80
2018-05-26T22:43:20.824Z,92.10
2018-05-26T22:45:48.474Z,92.50
2018-05-26T22:48:16.099Z,92.10
2018-05-26T22:50:43.783Z,92.10
2018-05-26T22:53:11.352Z,91.80
2018-05-26T22:55:40.191Z,92.40
2018-05-26T22:58:08.507Z,92.40
2018-05-26T23:00:36.101Z,92.40
2018-05-26T23:03:03.830Z,92.10
2018-05-26T23:05:31.430Z,92.10
2018-05-26T23:07:59.034Z,92.50
2018-05-26T23:10:26.675Z,92.00
2018-05-26T23:12:55.042Z,92.00
2018-05-26T23:15:23.392Z,93.00
2018-05-26T23:17:51.003Z,93.00
2018-05-26T23:22:53.356Z,92.70
2018-05-26T23:25:21.049Z,93.10
2018-05-26T23:27:49.401Z,93.60
2018-05-26T23:30:16.981Z,93.60
2018-05-26T23:32:45.362Z,93.10
2018-05-26T23:35:13.691Z,93.10
2018-05-26T23:37:41.291Z,93.10
2018-05-26T23:40:09.664Z,93.60
2018-05-26T23:42:38.107Z,92.60
2018-05-26T23:45:05.727Z,92.60
2018-05-26T23:47:33.314Z,93.70
2018-05-26T23:50:01.023Z,93.40
2018-05-26T23:52:29.382Z,93.10
2018-05-26T23:54:56.964Z,93.10
2018-05-26T23:57:25.323Z,93.10
2018-05-26T23:59:52.899Z,93.10
